createdAt,value
2019-02-20T00:00:05.484Z,93.03
2019-02-20T00:01:05.491Z,93.35
2019-02-20T00:02:05.465Z,92.72
2019-02-20T00:03:05.452Z,92.61
2019-02-20T00:04:05.445Z,92.72
2019-02-20T00:05:05.429Z,92.30
2019-02-20T00:06:05.420Z,92.35
2019-02-20T00:07:05.424Z,91.99
2019-02-20T00:08:05.398Z,92.24
2019-02-20T00:09:05.391Z,92.97
2019-02-20T00:10:05.379Z,92.86
2019-02-20T00:11:05.366Z,92.24
2019-02-20T00:12:05.356Z,92.86
2019-02-20T00:13:05.445Z,93.18
2019-02-20T00:14:05.340Z,93.12
2019-02-20T00:15:05.328Z,93.12
2019-02-20T00:16:05.313Z,93.64
2019-02-20T00:17:05.302Z,93.85
2019-02-20T00:18:05.291Z,94.16
2019-02-20T00:19:05.298Z,94.47
2019-02-20T00:20:05.275Z,94.89
2019-02-20T00:21:05.263Z,95.87
2019-02-20T00:22:05.250Z,95.51
2019-02-20T00:23:05.239Z,95.51
2019-02-20T00:24:05.230Z,95.09
2019-02-20T00:25:05.237Z,95.20
2019-02-20T00:26:05.208Z,94.57
2019-02-20T00:27:05.207Z,94.51
2019-02-20T00:28:05.185Z,94.47
2019-02-20T00:29:05.179Z,94.82
2019-02-20T00:30:05.170Z,94.89
2019-02-20T00:31:05.173Z,94.78
2019-02-20T00:32:05.153Z,94.57
2019-02-20T00:33:05.134Z,94.51
2019-02-20T00:34:05.132Z,94.41
2019-02-20T00:35:05.112Z,93.89
2019-02-20T00:36:05.102Z,94.31
2019-02-20T00:37:05.105Z,94.31
2019-02-20T00:38:05.082Z,93.89
2019-02-20T00:39:05.086Z,94.41
2019-02-20T00:40:05.058Z,94.10
2019-02-20T00:41:05.052Z,94.51
2019-02-20T00:42:05.037Z,94.10
2019-02-20T00:43:05.057Z,94.62
2019-02-20T00:44:05.015Z,93.99
2019-02-20T00:45:05.006Z,94.51
2019-02-20T00:46:04.993Z,94.14
2019-02-20T00:47:04.986Z,94.24
2019-02-20T00:48:04.976Z,94.87
2019-02-20T00:49:04.980Z,95.18
2019-02-20T00:50:04.951Z,95.18
2019-02-20T00:51:04.942Z,95.70
2019-02-20T00:52:04.929Z,95.50
2019-02-20T00:53:04.919Z,95.50
2019-02-20T00:54:04.910Z,95.95
2019-02-20T00:55:04.919Z,95.85
2019-02-20T00:56:04.888Z,95.75
2019-02-20T00:57:04.879Z,95.64
2019-02-20T00:58:04.865Z,95.95
2019-02-20T00:59:04.855Z,96.33
2019-02-20T01:00:04.881Z,96.48
2019-02-20T01:01:04.853Z,96.26
2019-02-20T01:02:04.830Z,95.85
2019-02-20T01:03:04.810Z,95.75
2019-02-20T01:04:04.819Z,95.85
2019-02-20T01:05:04.830Z,95.81
2019-02-20T01:06:05.113Z,95.81
2019-02-20T01:07:04.811Z,96.12
2019-02-20T01:08:04.759Z,95.85
2019-02-20T01:09:04.785Z,96.22
2019-02-20T01:10:04.733Z,96.06
2019-02-20T01:11:04.738Z,95.91
2019-02-20T01:12:04.739Z,95.91
2019-02-20T01:13:04.800Z,96.01
2019-02-20T01:14:04.693Z,95.91
2019-02-20T01:15:04.681Z,95.85
2019-02-20T01:16:04.684Z,95.95
2019-02-20T01:17:04.664Z,96.06
2019-02-20T01:18:04.652Z,95.91
2019-02-20T01:19:04.652Z,95.85
2019-02-20T01:20:04.646Z,96.06
2019-02-20T01:21:04.618Z,95.85
2019-02-20T01:22:04.609Z,95.23
2019-02-20T01:23:04.594Z,96.06
2019-02-20T01:24:04.584Z,96.48
2019-02-20T01:25:04.616Z,96.52
2019-02-20T01:26:04.575Z,96.21
2019-02-20T01:27:04.549Z,96.79
2019-02-20T01:28:04.542Z,96.48
2019-02-20T01:29:04.533Z,96.48
2019-02-20T01:30:04.523Z,96.89
2019-02-20T01:31:04.573Z,96.48
2019-02-20T01:32:04.498Z,97.52
2019-02-20T01:33:04.489Z,97.72
2019-02-20T01:34:04.476Z,97.62
2019-02-20T01:35:04.470Z,97.41
2019-02-20T01:36:04.461Z,96.79
2019-02-20T01:37:04.463Z,96.69
2019-02-20T01:38:04.435Z,96.48
2019-02-20T01:39:04.450Z,96.69
2019-02-20T01:40:04.412Z,95.95
2019-02-20T01:41:04.400Z,96.62
2019-02-20T01:42:04.390Z,96.42
2019-02-20T01:43:04.399Z,96.58
2019-02-20T01:44:04.371Z,96.42
2019-02-20T01:45:04.358Z,96.21
2019-02-20T01:46:04.348Z,96.21
2019-02-20T01:47:04.386Z,96.31
2019-02-20T01:48:04.327Z,96.52
2019-02-20T01:49:04.415Z,96.73
2019-02-20T01:50:04.306Z,96.83
2019-02-20T01:51:04.294Z,97.14
2019-02-20T01:52:04.284Z,96.73
2019-02-20T01:53:10.432Z,96.42
2019-02-20T01:54:05.330Z,96.94
2019-02-20T01:55:04.257Z,97.62
2019-02-20T01:56:04.245Z,97.77
2019-02-20T01:57:04.231Z,97.41
2019-02-20T01:58:04.217Z,96.69
2019-02-20T01:59:04.208Z,97.52
2019-02-20T02:00:04.237Z,97.77
2019-02-20T02:01:04.221Z,97.67
2019-02-20T02:02:04.178Z,97.31
2019-02-20T02:03:04.171Z,97.41
2019-02-20T02:04:04.153Z,97.52
2019-02-20T02:05:04.143Z,97.52
2019-02-20T02:06:04.150Z,97.83
2019-02-20T02:07:04.121Z,96.73
2019-02-20T02:08:04.112Z,96.52
2019-02-20T02:09:04.103Z,96.52
2019-02-20T02:10:04.091Z,96.52
2019-02-20T02:11:04.080Z,96.42
2019-02-20T02:12:04.105Z,96.94
2019-02-20T02:13:04.057Z,96.62
2019-02-20T02:14:04.047Z,96.56
2019-02-20T02:15:04.035Z,97.81
2019-02-20T02:16:04.028Z,97.61
2019-02-20T02:17:04.015Z,97.71
2019-02-20T02:18:04.016Z,97.71
2019-02-20T02:19:03.993Z,97.92
2019-02-20T02:20:03.980Z,96.77
2019-02-20T02:21:03.970Z,96.71
2019-02-20T02:22:03.965Z,97.30
2019-02-20T02:23:03.946Z,97.30
2019-02-20T02:24:03.952Z,98.13
2019-02-20T02:25:03.927Z,98.13
2019-02-20T02:26:10.686Z,97.50
2019-02-20T02:27:04.910Z,97.40
2019-02-20T02:28:03.898Z,97.40
2019-02-20T02:29:03.892Z,98.13
2019-02-20T02:30:03.893Z,98.02
2019-02-20T02:31:03.876Z,97.30
2019-02-20T02:32:03.856Z,97.61
2019-02-20T02:33:03.846Z,98.02
2019-02-20T02:34:03.834Z,98.13
2019-02-20T02:35:03.824Z,98.23
2019-02-20T02:36:03.832Z,97.40
2019-02-20T02:37:03.806Z,97.24
2019-02-20T02:38:03.796Z,97.61
2019-02-20T02:39:03.781Z,97.81
2019-02-20T02:40:03.770Z,97.19
2019-02-20T02:41:03.814Z,96.92
2019-02-20T02:42:03.788Z,96.92
2019-02-20T02:43:03.735Z,97.81
2019-02-20T02:44:03.735Z,96.77
2019-02-20T02:45:03.717Z,97.61
2019-02-20T02:46:03.707Z,97.61
2019-02-20T02:47:03.695Z,97.71
2019-02-20T02:48:03.724Z,97.71
2019-02-20T02:49:03.675Z,97.40
2019-02-20T02:50:03.667Z,97.81
2019-02-20T02:51:03.653Z,97.81
2019-02-20T02:52:03.642Z,98.02
2019-02-20T02:53:03.635Z,97.97
2019-02-20T02:54:03.642Z,97.71
2019-02-20T02:55:03.610Z,97.71
2019-02-20T02:56:03.609Z,98.34
2019-02-20T02:57:03.594Z,98.13
2019-02-20T02:58:03.607Z,97.81
2019-02-20T02:59:03.569Z,97.81
2019-02-20T03:00:03.688Z,98.02
2019-02-20T03:01:03.550Z,97.92
2019-02-20T03:02:03.538Z,97.92
2019-02-20T03:03:03.527Z,97.75
2019-02-20T03:04:03.541Z,98.34
2019-02-20T03:05:03.505Z,98.02
2019-02-20T03:06:03.615Z,98.23
2019-02-20T03:07:03.489Z,98.28
2019-02-20T03:08:03.472Z,97.97
2019-02-20T03:09:03.482Z,98.18
2019-02-20T03:10:03.453Z,98.18
2019-02-20T03:11:03.450Z,97.97
2019-02-20T03:12:03.444Z,98.32
2019-02-20T03:13:03.421Z,97.97
2019-02-20T03:14:03.408Z,98.22
2019-02-20T03:15:03.398Z,98.22
2019-02-20T03:16:03.386Z,98.11
2019-02-20T03:17:03.378Z,97.59
2019-02-20T03:18:03.383Z,97.91
2019-02-20T03:19:03.360Z,98.43
2019-02-20T03:20:03.342Z,98.32
2019-02-20T03:21:03.339Z,98.53
2019-02-20T03:22:03.329Z,98.63
2019-02-20T03:23:03.313Z,98.43
2019-02-20T03:24:03.316Z,98.26
2019-02-20T03:25:03.295Z,98.37
2019-02-20T03:26:03.286Z,98.79
2019-02-20T03:27:03.271Z,98.05
2019-02-20T03:28:03.262Z,98.68
2019-02-20T03:29:03.252Z,98.68
2019-02-20T03:30:03.357Z,98.47
2019-02-20T03:31:03.231Z,98.58
2019-02-20T03:32:03.226Z,98.26
2019-02-20T03:33:03.216Z,98.26
2019-02-20T03:34:03.201Z,98.01
2019-02-20T03:35:03.188Z,97.74
2019-02-20T03:36:03.198Z,97.64
2019-02-20T03:37:03.169Z,98.05
2019-02-20T03:38:03.158Z,98.05
2019-02-20T03:39:03.147Z,97.53
2019-02-20T03:40:03.149Z,98.05
2019-02-20T03:41:03.144Z,98.05
2019-02-20T03:42:03.131Z,98.58
2019-02-20T03:43:03.107Z,98.16
2019-02-20T03:44:03.099Z,98.58
2019-02-20T03:45:03.088Z,98.37
2019-02-20T03:46:03.076Z,98.37
2019-02-20T03:47:03.063Z,98.79
2019-02-20T03:48:03.070Z,98.79
2019-02-20T03:49:03.044Z,98.47
2019-02-20T03:50:03.038Z,98.79
2019-02-20T03:51:03.024Z,98.37
2019-02-20T03:52:03.014Z,98.26
2019-02-20T03:53:03.003Z,98.58
2019-02-20T03:54:03.009Z,98.47
2019-02-20T03:55:02.981Z,98.37
2019-02-20T03:56:02.970Z,98.05
2019-02-20T03:57:02.963Z,98.16
2019-02-20T03:58:02.950Z,98.37
2019-02-20T03:59:02.941Z,98.37
2019-02-20T04:00:03.034Z,97.95
2019-02-20T04:01:02.922Z,98.58
2019-02-20T04:02:02.906Z,98.05
2019-02-20T04:03:02.894Z,98.37
2019-02-20T04:04:02.901Z,98.37
2019-02-20T04:05:02.877Z,98.58
2019-02-20T04:06:02.892Z,98.26
2019-02-20T04:07:02.869Z,98.26
2019-02-20T04:08:02.844Z,98.16
2019-02-20T04:09:02.837Z,98.47
2019-02-20T04:10:02.823Z,98.37
2019-02-20T04:11:02.815Z,98.58
2019-02-20T04:12:02.832Z,98.26
2019-02-20T04:13:02.790Z,98.26
2019-02-20T04:14:02.781Z,98.37
2019-02-20T04:15:02.777Z,98.37
2019-02-20T04:16:02.758Z,98.52
2019-02-20T04:17:02.748Z,98.37
2019-02-20T04:18:02.751Z,97.89
2019-02-20T04:19:02.734Z,98.21
2019-02-20T04:20:02.716Z,98.21
2019-02-20T04:21:02.706Z,98.26
2019-02-20T04:22:02.708Z,98.26
2019-02-20T04:23:02.685Z,98.37
2019-02-20T04:24:03.040Z,98.37
2019-02-20T04:25:02.664Z,98.47
2019-02-20T04:26:02.651Z,98.26
2019-02-20T04:27:02.642Z,97.64
2019-02-20T04:28:02.635Z,97.74
2019-02-20T04:29:02.628Z,97.85
2019-02-20T04:30:02.719Z,98.26
2019-02-20T04:31:02.602Z,97.53
2019-02-20T04:32:02.592Z,97.47
2019-02-20T04:33:02.583Z,97.47
2019-02-20T04:34:02.572Z,97.27
2019-02-20T04:35:02.560Z,98.21
2019-02-20T04:36:02.572Z,98.21
2019-02-20T04:37:02.536Z,98.10
2019-02-20T04:38:02.542Z,98.21
2019-02-20T04:39:02.528Z,98.52
2019-02-20T04:40:02.524Z,98.10
2019-02-20T04:41:02.507Z,98.21
2019-02-20T04:42:02.508Z,98.10
2019-02-20T04:43:02.472Z,98.52
2019-02-20T04:44:02.463Z,98.21
2019-02-20T04:45:02.464Z,98.31
2019-02-20T04:46:02.444Z,98.31
2019-02-20T04:47:02.441Z,98.10
2019-02-20T04:48:02.438Z,98.21
2019-02-20T04:49:02.409Z,98.35
2019-02-20T04:50:02.397Z,98.14
2019-02-20T04:51:02.393Z,97.94
2019-02-20T04:52:02.381Z,97.89
2019-02-20T04:53:02.366Z,97.83
2019-02-20T04:54:02.379Z,98.35
2019-02-20T04:55:02.343Z,98.25
2019-02-20T04:56:02.333Z,98.46
2019-02-20T04:57:02.325Z,99.04
2019-02-20T04:58:02.329Z,99.08
2019-02-20T04:59:02.385Z,98.93
2019-02-20T05:00:02.309Z,98.56
2019-02-20T05:01:02.295Z,98.31
2019-02-20T05:02:02.278Z,98.35
2019-02-20T05:03:02.263Z,98.46
2019-02-20T05:04:02.263Z,98.56
2019-02-20T05:05:02.241Z,98.10
2019-02-20T05:06:02.256Z,97.99
2019-02-20T05:07:02.220Z,97.94
2019-02-20T05:08:02.208Z,97.72
2019-02-20T05:10:09.223Z,98.04
2019-02-20T05:11:02.187Z,98.77
2019-02-20T05:12:02.184Z,98.25
2019-02-20T05:13:02.157Z,98.35
2019-02-20T05:14:02.145Z,98.77
2019-02-20T05:15:02.195Z,98.04
2019-02-20T05:16:02.125Z,98.46
2019-02-20T05:17:02.118Z,98.35
2019-02-20T05:18:02.124Z,98.04
2019-02-20T05:19:02.097Z,98.46
2019-02-20T05:20:02.086Z,98.14
2019-02-20T05:21:02.071Z,98.46
2019-02-20T05:22:02.061Z,98.46
2019-02-20T05:23:02.053Z,98.46
2019-02-20T05:24:02.058Z,98.56
2019-02-20T05:25:02.034Z,98.04
2019-02-20T05:26:02.076Z,98.14
2019-02-20T05:27:02.091Z,98.14
2019-02-20T05:28:02.055Z,98.29
2019-02-20T05:29:01.989Z,98.35
2019-02-20T05:30:01.993Z,98.29
2019-02-20T05:31:01.967Z,98.56
2019-02-20T05:32:02.007Z,98.35
2019-02-20T05:33:01.951Z,98.46
2019-02-20T05:34:01.936Z,98.35
2019-02-20T05:35:01.926Z,98.35
2019-02-20T05:36:02.031Z,98.39
2019-02-20T05:37:01.905Z,98.35
2019-02-20T05:38:01.897Z,98.82
2019-02-20T05:39:01.887Z,98.61
2019-02-20T05:40:01.870Z,98.56
2019-02-20T05:41:01.862Z,98.35
2019-02-20T05:42:01.887Z,99.08
2019-02-20T05:43:01.873Z,98.67
2019-02-20T05:44:01.825Z,98.35
2019-02-20T05:45:01.817Z,98.56
2019-02-20T05:46:01.806Z,98.56
2019-02-20T05:47:01.804Z,98.77
2019-02-20T05:48:01.815Z,98.25
2019-02-20T05:49:01.781Z,98.25
2019-02-20T05:50:01.767Z,98.35
2019-02-20T05:51:01.756Z,98.46
2019-02-20T05:52:01.750Z,98.56
2019-02-20T05:53:01.734Z,98.77
2019-02-20T05:54:01.752Z,98.67
2019-02-20T05:55:01.716Z,98.67
2019-02-20T05:56:01.702Z,98.56
2019-02-20T05:57:01.684Z,98.56
2019-02-20T05:58:01.679Z,98.56
2019-02-20T05:59:01.682Z,98.88
2019-02-20T06:00:01.675Z,98.29
2019-02-20T06:01:01.649Z,98.46
2019-02-20T06:02:01.645Z,98.92
2019-02-20T06:03:01.631Z,98.50
2019-02-20T06:04:01.655Z,98.50
2019-02-20T06:05:01.610Z,98.50
2019-02-20T06:06:01.617Z,98.39
2019-02-20T06:07:01.585Z,98.92
2019-02-20T06:08:01.575Z,98.50
2019-02-20T06:09:01.566Z,98.61
2019-02-20T06:10:01.560Z,99.13
2019-02-20T06:11:01.546Z,98.39
2019-02-20T06:12:01.553Z,98.71
2019-02-20T06:13:01.524Z,99.02
2019-02-20T06:14:01.520Z,99.55
2019-02-20T06:15:01.503Z,99.65
2019-02-20T06:16:01.490Z,99.13
2019-02-20T06:17:01.487Z,99.13
2019-02-20T06:18:01.487Z,98.92
2019-02-20T06:19:01.463Z,98.56
2019-02-20T06:20:01.452Z,99.02
2019-02-20T06:21:01.443Z,98.61
2019-02-20T06:22:01.426Z,98.61
2019-02-20T06:23:01.416Z,98.67
2019-02-20T06:24:01.423Z,98.46
2019-02-20T06:25:01.397Z,98.88
2019-02-20T06:26:01.445Z,98.46
2019-02-20T06:27:01.378Z,98.77
2019-02-20T06:28:01.365Z,98.88
2019-02-20T06:29:01.352Z,98.25
2019-02-20T06:30:01.365Z,98.35
2019-02-20T06:31:01.330Z,98.35
2019-02-20T06:32:01.333Z,98.77
2019-02-20T06:33:01.311Z,98.67
2019-02-20T06:34:01.303Z,98.67
2019-02-20T06:35:01.287Z,98.46
2019-02-20T06:36:01.295Z,98.61
2019-02-20T06:37:01.267Z,98.04
2019-02-20T06:38:01.260Z,98.35
2019-02-20T06:39:01.247Z,98.35
2019-02-20T06:40:01.241Z,97.94
2019-02-20T06:41:01.222Z,97.83
2019-02-20T06:42:01.228Z,98.25
2019-02-20T06:43:01.206Z,98.35
2019-02-20T06:44:01.193Z,98.25
2019-02-20T06:45:01.195Z,98.14
2019-02-20T06:46:01.170Z,98.56
2019-02-20T06:47:01.164Z,98.35
2019-02-20T06:48:01.171Z,97.58
2019-02-20T06:49:01.142Z,97.89
2019-02-20T06:50:01.768Z,97.41
2019-02-20T06:51:01.128Z,97.83
2019-02-20T06:52:01.112Z,97.58
2019-02-20T06:53:01.098Z,96.64
2019-02-20T06:54:01.107Z,96.64
2019-02-20T06:55:01.080Z,96.95
2019-02-20T06:56:01.078Z,96.53
2019-02-20T06:57:01.060Z,97.01
2019-02-20T06:58:01.048Z,96.59
2019-02-20T06:59:01.041Z,97.01
2019-02-20T07:00:01.048Z,96.38
2019-02-20T07:01:01.018Z,96.91
2019-02-20T07:02:01.003Z,96.28
2019-02-20T07:03:01.018Z,96.70
2019-02-20T07:04:00.989Z,95.72
2019-02-20T07:05:00.977Z,96.13
2019-02-20T07:06:00.984Z,96.23
2019-02-20T07:07:00.959Z,95.50
2019-02-20T07:08:00.945Z,95.72
2019-02-20T07:09:00.935Z,95.15
2019-02-20T07:10:00.934Z,94.37
2019-02-20T07:11:00.913Z,92.66
2019-02-20T07:12:00.922Z,91.78
2019-02-20T07:13:00.892Z,90.29
2019-02-20T07:14:00.883Z,89.10
2019-02-20T07:15:00.907Z,88.68
2019-02-20T07:16:00.861Z,88.06
2019-02-20T07:17:00.854Z,87.85
2019-02-20T07:18:00.852Z,87.25
2019-02-20T07:19:00.831Z,87.90
2019-02-20T07:20:00.819Z,86.44
2019-02-20T07:21:00.808Z,85.05
2019-02-20T07:22:00.823Z,82.77
2019-02-20T07:23:00.787Z,82.87
2019-02-20T07:24:00.798Z,82.35
2019-02-20T07:25:03.078Z,83.98
2019-02-20T07:26:00.757Z,82.24
2019-02-20T07:27:00.748Z,80.33
2019-02-20T07:28:00.736Z,79.30
2019-02-20T07:29:00.722Z,78.51
2019-02-20T07:30:00.729Z,78.75
2019-02-20T07:31:00.720Z,79.30
2019-02-20T07:32:00.690Z,79.69
2019-02-20T07:33:00.677Z,79.61
2019-02-20T07:34:00.676Z,80.00
2019-02-20T07:35:00.660Z,80.65
2019-02-20T07:36:00.683Z,79.41
2019-02-20T07:37:00.656Z,80.33
2019-02-20T07:38:00.628Z,78.99
2019-02-20T07:39:00.628Z,77.85
2019-02-20T07:40:00.611Z,77.23
2019-02-20T07:41:00.590Z,78.64
2019-02-20T07:42:00.697Z,77.19
2019-02-20T07:43:00.573Z,77.05
2019-02-20T07:44:00.562Z,76.71
2019-02-20T07:45:00.552Z,77.85
2019-02-20T07:46:00.539Z,78.44
2019-02-20T07:47:00.531Z,77.50
2019-02-20T07:48:00.536Z,76.95
2019-02-20T07:49:00.509Z,76.74
2019-02-20T07:50:00.524Z,77.23
2019-02-20T07:51:00.484Z,79.30
2019-02-20T07:52:00.490Z,77.92
2019-02-20T07:53:00.467Z,77.64
2019-02-20T07:54:00.464Z,78.09
2019-02-20T07:55:00.467Z,78.61
2019-02-20T07:56:00.432Z,79.51
2019-02-20T07:57:00.420Z,77.92
2019-02-20T07:58:00.414Z,77.47
2019-02-20T07:59:00.404Z,76.09
2019-02-20T08:00:00.451Z,75.84
2019-02-20T08:01:00.382Z,74.63
2019-02-20T08:02:00.364Z,75.74
2019-02-20T08:03:00.356Z,75.22
2019-02-20T08:04:00.355Z,75.57
2019-02-20T08:05:00.360Z,73.71
2019-02-20T08:06:00.340Z,73.29
2019-02-20T08:07:00.318Z,73.39
2019-02-20T08:08:00.308Z,72.53
2019-02-20T08:09:00.291Z,72.91
2019-02-20T08:10:00.394Z,70.75
2019-02-20T08:11:00.268Z,72.16
2019-02-20T08:12:00.281Z,71.47
2019-02-20T08:13:00.249Z,71.23
2019-02-20T08:14:00.236Z,70.92
2019-02-20T08:15:00.329Z,71.71
2019-02-20T08:16:00.217Z,71.16
2019-02-20T08:17:00.202Z,69.10
2019-02-20T08:18:00.205Z,69.34
2019-02-20T08:19:00.192Z,70.64
2019-02-20T08:20:00.320Z,71.61
2019-02-20T08:21:00.181Z,71.89
2019-02-20T08:22:00.159Z,70.20
2019-02-20T08:23:00.143Z,68.32
2019-02-20T08:24:00.141Z,68.32
2019-02-20T08:25:00.397Z,68.46
2019-02-20T08:26:00.105Z,67.87
2019-02-20T08:27:00.099Z,68.12
2019-02-20T08:28:00.083Z,66.47
2019-02-20T08:29:00.077Z,66.19
2019-02-20T08:30:00.269Z,66.37
2019-02-20T08:31:00.047Z,65.89
2019-02-20T08:32:00.044Z,65.99
2019-02-20T08:33:00.032Z,68.66
2019-02-20T08:34:00.019Z,68.66
2019-02-20T08:35:00.006Z,69.07
2019-02-20T08:36:00.017Z,66.64
2019-02-20T08:36:59.985Z,67.71
2019-02-20T08:37:59.977Z,66.50
2019-02-20T08:38:59.961Z,67.87
2019-02-20T08:39:59.953Z,68.12
2019-02-20T08:40:59.942Z,67.22
2019-02-20T08:41:59.951Z,67.50
2019-02-20T08:42:59.917Z,66.31
2019-02-20T08:43:59.908Z,65.48
2019-02-20T08:44:59.899Z,66.50
2019-02-20T08:45:59.886Z,68.62
2019-02-20T08:46:59.876Z,71.23
2019-02-20T08:47:59.883Z,70.68
2019-02-20T08:48:59.856Z,73.05
2019-02-20T08:49:59.851Z,74.46
2019-02-20T08:50:59.835Z,72.23
2019-02-20T08:51:59.825Z,73.88
2019-02-20T08:52:59.810Z,75.53
2019-02-20T08:53:59.815Z,74.98
2019-02-20T08:54:59.796Z,74.43
2019-02-20T08:55:59.794Z,74.22
2019-02-20T08:56:59.768Z,75.67
2019-02-20T08:57:59.754Z,74.81
2019-02-20T08:58:59.747Z,73.60
2019-02-20T08:59:59.750Z,71.13
2019-02-20T09:00:59.719Z,72.99
2019-02-20T09:01:59.730Z,72.88
2019-02-20T09:02:59.697Z,72.92
2019-02-20T09:03:59.691Z,73.05
2019-02-20T09:04:59.678Z,73.60
2019-02-20T09:05:59.681Z,72.13
2019-02-20T09:06:59.691Z,72.64
2019-02-20T09:07:59.649Z,71.99
2019-02-20T09:08:59.634Z,71.34
2019-02-20T09:09:59.631Z,69.63
2019-02-20T09:10:59.611Z,68.74
2019-02-20T09:11:59.627Z,69.97
2019-02-20T09:12:59.593Z,70.10
2019-02-20T09:13:59.603Z,71.03
2019-02-20T09:14:59.573Z,71.20
2019-02-20T09:15:59.582Z,69.15
2019-02-20T09:16:59.547Z,68.26
2019-02-20T09:17:59.576Z,67.65
2019-02-20T09:18:59.525Z,67.58
2019-02-20T09:19:59.520Z,66.63
2019-02-20T09:20:59.512Z,65.33
2019-02-20T09:21:59.499Z,64.75
2019-02-20T09:22:59.487Z,65.47
2019-02-20T09:23:59.486Z,64.61
2019-02-20T09:24:59.457Z,64.88
2019-02-20T09:25:59.448Z,66.04
2019-02-20T09:26:59.432Z,66.66
2019-02-20T09:27:59.444Z,66.42
2019-02-20T09:28:59.419Z,67.71
2019-02-20T09:29:59.515Z,67.32
2019-02-20T09:30:59.403Z,65.19
2019-02-20T09:31:59.377Z,66.31
2019-02-20T09:32:59.373Z,67.48
2019-02-20T09:33:59.355Z,67.44
2019-02-20T09:34:59.369Z,66.52
2019-02-20T09:35:59.399Z,67.14
2019-02-20T09:36:59.326Z,67.58
2019-02-20T09:37:59.313Z,67.14
2019-02-20T09:38:59.322Z,65.98
2019-02-20T09:39:59.311Z,66.36
2019-02-20T09:40:59.314Z,64.82
2019-02-20T09:41:59.287Z,65.23
2019-02-20T09:42:59.265Z,64.79
2019-02-20T09:43:59.253Z,64.42
2019-02-20T09:44:59.240Z,63.12
2019-02-20T09:45:59.234Z,64.04
2019-02-20T09:46:59.218Z,63.94
2019-02-20T09:47:59.224Z,64.69
2019-02-20T09:48:59.198Z,64.76
2019-02-20T09:49:59.186Z,64.04
2019-02-20T09:50:59.184Z,65.84
2019-02-20T09:51:59.179Z,66.16
2019-02-20T09:52:59.154Z,66.46
2019-02-20T09:53:59.211Z,65.81
2019-02-20T09:54:59.128Z,64.62
2019-02-20T09:55:59.122Z,64.22
2019-02-20T09:56:59.123Z,65.61
2019-02-20T09:57:59.121Z,65.37
2019-02-20T09:58:59.084Z,64.65
2019-02-20T09:59:59.094Z,64.56
2019-02-20T10:00:59.068Z,64.65
2019-02-20T10:01:59.053Z,64.76
2019-02-20T10:02:59.043Z,64.65
2019-02-20T10:03:59.591Z,63.91
2019-02-20T10:04:59.040Z,64.29
2019-02-20T10:05:59.032Z,63.03
2019-02-20T10:06:59.001Z,62.93
2019-02-20T10:07:58.995Z,62.11
2019-02-20T10:08:58.979Z,63.54
2019-02-20T10:09:58.966Z,63.17
2019-02-20T10:10:58.959Z,63.40
2019-02-20T10:11:59.049Z,64.09
2019-02-20T10:12:58.937Z,63.26
2019-02-20T10:13:58.942Z,63.88
2019-02-20T10:14:58.919Z,62.73
2019-02-20T10:15:58.903Z,61.54
2019-02-20T10:16:58.894Z,61.61
2019-02-20T10:17:58.993Z,60.93
2019-02-20T10:18:58.867Z,62.26
2019-02-20T10:19:58.854Z,61.06
2019-02-20T10:20:58.848Z,62.23
2019-02-20T10:21:58.835Z,60.28
2019-02-20T10:22:58.822Z,59.82
2019-02-20T10:23:58.831Z,58.91
2019-02-20T10:24:58.812Z,60.49
2019-02-20T10:26:01.130Z,60.90
2019-02-20T10:27:00.854Z,60.13
2019-02-20T10:27:58.770Z,60.23
2019-02-20T10:28:58.755Z,60.05
2019-02-20T10:29:58.765Z,61.10
2019-02-20T10:30:58.739Z,61.49
2019-02-20T10:31:58.728Z,60.33
2019-02-20T10:32:58.714Z,58.95
2019-02-20T10:33:58.708Z,58.67
2019-02-20T10:34:58.693Z,58.98
2019-02-20T10:35:58.690Z,58.54
2019-02-20T10:36:58.670Z,58.57
2019-02-20T10:37:58.666Z,58.87
2019-02-20T10:38:58.662Z,59.89
2019-02-20T10:39:58.636Z,58.47
2019-02-20T10:40:58.630Z,58.75
2019-02-20T10:41:58.633Z,58.21
2019-02-20T10:42:58.607Z,56.29
2019-02-20T10:43:58.591Z,56.60
2019-02-20T10:44:58.582Z,56.20
2019-02-20T10:45:58.571Z,55.55
2019-02-20T10:46:58.560Z,53.98
2019-02-20T10:47:58.565Z,53.57
2019-02-20T10:48:58.539Z,52.69
2019-02-20T10:49:58.530Z,53.27
2019-02-20T10:50:58.517Z,53.70
2019-02-20T10:51:58.512Z,52.81
2019-02-20T10:52:58.495Z,53.24
2019-02-20T10:53:58.501Z,53.04
2019-02-20T10:54:58.470Z,53.37
2019-02-20T10:55:58.461Z,53.04
2019-02-20T10:56:58.452Z,53.14
2019-02-20T10:57:58.446Z,53.04
2019-02-20T10:58:58.429Z,51.79
2019-02-20T10:59:58.520Z,52.43
2019-02-20T11:00:58.410Z,53.14
2019-02-20T11:01:58.400Z,53.59
2019-02-20T11:02:58.388Z,52.56
2019-02-20T11:03:58.381Z,53.57
2019-02-20T11:04:58.362Z,54.31
2019-02-20T11:05:58.368Z,54.33
2019-02-20T11:06:58.339Z,54.72
2019-02-20T11:07:58.329Z,53.83
2019-02-20T11:08:58.318Z,54.46
2019-02-20T11:10:05.340Z,54.51
2019-02-20T11:10:58.297Z,52.98
2019-02-20T11:11:58.320Z,53.57
2019-02-20T11:12:58.274Z,52.98
2019-02-20T11:13:58.264Z,53.02
2019-02-20T11:14:58.255Z,54.39
2019-02-20T11:15:58.939Z,53.06
2019-02-20T11:16:58.227Z,51.92
2019-02-20T11:17:58.236Z,51.01
2019-02-20T11:18:58.208Z,50.90
2019-02-20T11:19:58.197Z,50.98
2019-02-20T11:20:58.185Z,50.48
2019-02-20T11:21:58.176Z,51.95
2019-02-20T11:22:58.166Z,52.81
2019-02-20T11:23:58.175Z,53.55
2019-02-20T11:24:58.146Z,53.29
2019-02-20T11:25:58.135Z,52.20
2019-02-20T11:26:58.122Z,51.16
2019-02-20T11:27:58.132Z,49.69
2019-02-20T11:28:58.110Z,50.02
2019-02-20T11:29:58.194Z,51.23
2019-02-20T11:30:58.088Z,49.54
2019-02-20T11:31:58.066Z,49.58
2019-02-20T11:32:58.053Z,50.73
2019-02-20T11:33:58.046Z,50.70
2019-02-20T11:34:58.045Z,49.56
2019-02-20T11:35:58.041Z,50.17
2019-02-20T11:36:58.011Z,50.50
2019-02-20T11:37:57.998Z,50.02
2019-02-20T11:38:57.992Z,49.41
2019-02-20T11:39:57.983Z,49.66
2019-02-20T11:40:57.966Z,49.84
2019-02-20T11:41:57.972Z,50.07
2019-02-20T11:42:57.944Z,49.62
2019-02-20T11:43:57.934Z,47.64
2019-02-20T11:44:57.921Z,48.07
2019-02-20T11:45:57.916Z,48.14
2019-02-20T11:46:57.900Z,49.36
2019-02-20T11:47:57.922Z,49.66
2019-02-20T11:48:57.901Z,49.46
2019-02-20T11:49:57.867Z,49.76
2019-02-20T11:50:57.857Z,49.44
2019-02-20T11:51:57.841Z,49.56
2019-02-20T11:52:57.836Z,49.84
2019-02-20T11:53:57.840Z,49.33
2019-02-20T11:54:57.816Z,48.18
2019-02-20T11:55:57.806Z,48.23
2019-02-20T11:56:57.787Z,46.77
2019-02-20T11:58:00.777Z,46.56
2019-02-20T11:58:57.768Z,45.75
2019-02-20T11:59:57.863Z,45.65
2019-02-20T12:00:57.759Z,45.43
2019-02-20T12:01:57.737Z,45.61
2019-02-20T12:02:57.722Z,46.61
2019-02-20T12:03:57.713Z,47.50
2019-02-20T12:04:57.708Z,46.84
2019-02-20T12:05:57.706Z,45.07
2019-02-20T12:06:57.680Z,46.83
2019-02-20T12:07:57.671Z,48.60
2019-02-20T12:08:57.662Z,48.07
2019-02-20T12:09:57.648Z,47.31
2019-02-20T12:10:57.633Z,47.31
2019-02-20T12:11:57.642Z,47.31
2019-02-20T12:12:57.616Z,46.48
2019-02-20T12:13:57.604Z,46.97
2019-02-20T12:14:57.591Z,45.69
2019-02-20T12:15:57.585Z,45.16
2019-02-20T12:16:57.572Z,43.02
2019-02-20T12:17:57.575Z,43.71
2019-02-20T12:18:57.571Z,42.66
2019-02-20T12:19:57.543Z,42.88
2019-02-20T12:20:57.534Z,43.44
2019-02-20T12:21:57.517Z,45.41
2019-02-20T12:22:57.527Z,46.04
2019-02-20T12:23:57.540Z,45.73
2019-02-20T12:24:59.261Z,46.04
2019-02-20T12:25:57.477Z,45.75
2019-02-20T12:26:57.461Z,47.85
2019-02-20T12:27:57.452Z,48.15
2019-02-20T12:28:57.440Z,47.92
2019-02-20T12:29:57.448Z,46.69
2019-02-20T12:30:57.416Z,47.11
2019-02-20T12:31:57.425Z,47.70
2019-02-20T12:32:57.397Z,47.02
2019-02-20T12:33:57.390Z,47.64
2019-02-20T12:34:57.377Z,47.90
2019-02-20T12:35:57.384Z,47.90
2019-02-20T12:36:57.349Z,47.30
2019-02-20T12:37:57.342Z,47.42
2019-02-20T12:38:57.333Z,47.31
2019-02-20T12:39:57.326Z,47.62
2019-02-20T12:40:57.308Z,48.11
2019-02-20T12:41:57.314Z,47.38
2019-02-20T12:42:57.289Z,46.56
2019-02-20T12:43:57.293Z,47.07
2019-02-20T12:44:58.544Z,47.25
2019-02-20T12:45:57.256Z,45.61
2019-02-20T12:46:57.245Z,45.53
2019-02-20T12:47:57.248Z,47.38
2019-02-20T12:48:57.229Z,46.75
2019-02-20T12:49:57.219Z,45.79
2019-02-20T12:50:57.200Z,44.46
2019-02-20T12:51:57.190Z,43.83
2019-02-20T12:52:57.180Z,43.91